Time;durP1;ratioP1;P1;durP2;ratioP2;P2;SDS_P1;SDS_P2;PMS_P1;PMS_P2;Temp;Humidity;BMP_temperature;BMP_pressure;BME280_temperature;BME280_humidity;BME280_pressure;Samples;Min_cycle;Max_cycle;Signal;HPM_P1;HPM_P2
2022/04/19 00:00:33;;;;;;;0.60;0.60;;;;;;;8.55;49.85;100025.37;103509;1279;137862;-67
2022/04/19 00:03:06;;;;;;;0.60;0.60;;;;;;;8.56;50.16;100020.38;103528;1279;95264;-67
2022/04/19 00:05:36;;;;;;;0.60;0.60;;;;;;;8.59;50.44;100023.33;103580;1279;96666;-67
2022/04/19 00:08:05;;;;;;;0.60;0.60;;;;;;;8.57;51.04;100019.83;103558;1279;138071;-67
2022/04/19 00:10:34;;;;;;;0.70;0.70;;;;;;;8.50;51.64;100019.09;103836;1279;98920;-67
2022/04/19 00:13:04;;;;;;;0.60;0.60;;;;;;;8.35;51.68;100018.73;103584;1279;138294;-67
2022/04/19 00:15:33;;;;;;;0.60;0.60;;;;;;;8.30;51.92;100011.77;103670;1279;95575;-68
2022/04/19 00:18:05;;;;;;;0.60;0.60;;;;;;;8.18;52.27;100011.34;103485;1279;137940;-68
2022/04/19 00:20:33;;;;;;;0.60;0.60;;;;;;;8.23;53.33;100006.82;103622;1278;110214;-67
2022/04/19 00:23:03;;;;;;;0.60;0.60;;;;;;;8.17;53.37;100005.16;103647;1279;98295;-67
2022/04/19 00:25:31;;;;;;;0.60;0.60;;;;;;;8.18;52.66;100006.55;103466;1279;138248;-66
2022/04/19 00:27:59;;;;;;;0.70;0.70;;;;;;;8.18;53.66;100007.63;103620;1279;96192;-65
2022/04/19 00:30:26;;;;;;;0.60;0.60;;;;;;;8.06;53.62;100005.77;103528;1279;138849;-68
2022/04/19 00:32:54;;;;;;;0.60;0.60;;;;;;;7.94;53.66;100005.67;103618;1280;109716;-68
2022/04/19 00:35:23;;;;;;;0.60;0.60;;;;;;;7.89;53.98;100004.19;103633;1280;99419;-67
2022/04/19 00:37:51;;;;;;;0.60;0.60;;;;;;;7.82;54.36;100002.56;103559;1279;138381;-64
2022/04/19 00:40:19;;;;;;;0.60;0.60;;;;;;;7.82;54.20;100000.98;103667;1279;95330;-67
2022/04/19 00:42:49;;;;;;;0.70;0.70;;;;;;;7.83;54.38;100002.73;103482;1279;138782;-68
2022/04/19 00:45:16;;;;;;;0.70;0.70;;;;;;;7.86;54.80;100000.90;103438;1280;109782;-68
2022/04/19 00:47:45;;;;;;;0.60;0.60;;;;;;;7.87;54.83;100003.52;103554;1278;99422;-67
2022/04/19 00:50:13;;;;;;;0.60;0.60;;;;;;;7.87;55.25;100000.86;103775;1279;138060;-67
2022/04/19 00:52:43;;;;;;;0.60;0.60;;;;;;;7.79;54.88;99997.33;103560;1279;96444;-68
2022/04/19 00:55:11;;;;;;;0.60;0.60;;;;;;;7.76;55.70;99990.86;103513;1279;138049;-67
2022/04/19 00:57:43;;;;;;;0.60;0.60;;;;;;;7.71;55.59;99992.02;103686;1279;109799;-65
2022/04/19 01:00:14;;;;;;;0.60;0.60;;;;;;;7.70;56.81;99993.63;103416;1279;138805;-69
2022/04/19 01:02:54;;;;;;;0.60;0.60;;;;;;;7.69;56.78;99995.59;103544;1280;109006;-67
2022/04/19 01:05:25;;;;;;;0.60;0.60;;;;;;;7.70;56.94;99995.05;103523;1279;95934;-68
2022/04/19 01:07:54;;;;;;;0.60;0.60;;;;;;;7.64;56.62;99993.41;103476;1279;138020;-68
2022/04/19 01:10:25;;;;;;;0.70;0.70;;;;;;;7.63;56.91;99994.69;103585;1280;109721;-67
2022/04/19 01:15:47;;;;;;;0.60;0.60;;;;;;;7.34;58.60;99991.19;103593;1279;107773;-66
2022/04/19 01:18:22;;;;;;;0.70;0.70;;;;;;;7.20;59.13;99992.85;103219;1279;138415;-68
2022/04/19 01:20:52;;;;;;;0.70;0.70;;;;;;;7.23;58.50;99994.23;103614;1280;95228;-68
2022/04/19 01:23:22;;;;;;;0.70;0.70;;;;;;;7.24;58.34;99995.61;103899;1278;110205;-67
2022/04/19 01:25:50;;;;;;;0.60;0.60;;;;;;;7.31;58.44;99993.70;103581;1279;138720;-68
2022/04/19 01:28:20;;;;;;;0.60;0.60;;;;;;;7.34;58.66;99989.95;103687;1280;108870;-64
2022/04/19 01:30:52;;;;;;;0.60;0.60;;;;;;;7.37;58.38;99986.00;103640;1279;137760;-67
2022/04/19 01:33:21;;;;;;;0.70;0.70;;;;;;;7.40;58.84;99983.12;103720;1279;95512;-68
2022/04/19 01:35:50;;;;;;;0.70;0.70;;;;;;;7.40;58.93;99979.95;103623;1279;138667;-68
2022/04/19 01:38:18;;;;;;;0.60;0.60;;;;;;;7.42;58.50;99975.13;103713;1279;98355;-67
2022/04/19 01:40:46;;;;;;;0.60;0.60;;;;;;;7.36;59.16;99973.65;103539;1279;108447;-67
2022/04/19 01:43:33;;;;;;;0.60;0.60;;;;;;;7.32;59.05;99971.61;103324;1280;137866;-68
2022/04/19 01:46:02;;;;;;;0.80;0.80;;;;;;;7.35;58.86;99971.73;103606;1279;95148;-68
2022/04/19 01:48:30;;;;;;;0.70;0.70;;;;;;;7.40;58.66;99965.64;103477;1279;137494;-67
2022/04/19 01:50:59;;;;;;;0.70;0.70;;;;;;;7.45;58.88;99960.75;103597;1279;99648;-68
2022/04/19 01:53:27;;;;;;;0.70;0.70;;;;;;;7.49;58.62;99961.92;103581;1279;108862;-68
2022/04/19 01:55:55;;;;;;;0.70;0.70;;;;;;;7.52;58.72;99958.66;103508;1279;137885;-68
2022/04/19 01:58:42;;;;;;;0.70;0.70;;;;;;;7.49;58.53;99957.48;103575;1280;95328;-68
2022/04/19 02:01:11;;;;;;;0.60;0.60;;;;;;;7.58;58.60;99957.48;103506;1280;138484;-68
2022/04/19 02:03:40;;;;;;;0.60;0.60;;;;;;;7.58;58.49;99957.14;103723;1279;99340;-68
2022/04/19 02:06:10;;;;;;;0.70;0.70;;;;;;;7.53;58.50;99958.48;103421;1279;138449;-68
2022/04/19 02:08:39;;;;;;;0.70;0.70;;;;;;;7.54;58.69;99958.81;103710;1279;95290;-68
2022/04/19 02:11:12;;;;;;;0.70;0.70;;;;;;;7.54;58.47;99960.05;103604;1280;95224;-68
2022/04/19 02:13:41;;;;;;;0.60;0.60;;;;;;;7.56;58.55;99961.60;103456;1279;138421;-68
2022/04/19 02:16:14;;;;;;;0.60;0.60;;;;;;;7.55;58.73;99962.14;103609;1279;98506;-68
2022/04/19 02:18:43;;;;;;;0.60;0.60;;;;;;;7.52;58.55;99962.39;103583;1280;137810;-67
2022/04/19 02:21:10;;;;;;;0.70;0.70;;;;;;;7.48;58.66;99960.87;103592;1280;95694;-68
2022/04/19 02:23:38;;;;;;;0.70;0.70;;;;;;;7.47;59.01;99965.67;103668;1279;95157;-65
2022/04/19 02:26:07;;;;;;;0.60;0.60;;;;;;;7.53;58.80;99964.48;103511;1280;138302;-68
2022/04/19 02:28:35;;;;;;;0.60;0.60;;;;;;;7.47;58.98;99962.65;103715;1279;98330;-66
2022/04/19 02:31:27;;;;;;;0.70;0.70;;;;;;;7.31;59.77;99962.81;103489;1278;138135;-68
2022/04/19 02:33:58;;;;;;;0.80;0.80;;;;;;;7.16;60.13;99966.29;103615;1280;95639;-66
2022/04/19 02:36:26;;;;;;;0.60;0.60;;;;;;;7.18;60.52;99960.77;103655;1280;139070;-66
2022/04/19 02:38:56;;;;;;;0.60;0.60;;;;;;;7.13;60.66;99964.04;103668;1279;109729;-68
2022/04/19 02:41:25;;;;;;;0.70;0.70;;;;;;;6.91;60.96;99966.75;103751;1281;99457;-68
2022/04/19 02:43:59;;;;;;;0.70;0.70;;;;;;;6.92;60.86;99963.02;103450;1281;137774;-67
2022/04/19 02:46:29;;;;;;;0.70;0.70;;;;;;;7.01;60.33;99961.97;103602;1280;95333;-67
2022/04/19 02:49:04;;;;;;;0.70;0.70;;;;;;;7.07;60.40;99962.39;103710;1279;137788;-67
2022/04/19 02:51:33;;;;;;;0.60;0.60;;;;;;;7.14;60.10;99966.14;103705;1279;109796;-66
2022/04/19 02:54:01;;;;;;;0.80;0.80;;;;;;;7.01;60.47;99968.50;103603;1279;138173;-67
2022/04/19 02:56:29;;;;;;;0.70;0.70;;;;;;;6.85;60.79;99965.08;103566;1279;109032;-65
2022/04/19 02:58:57;;;;;;;0.70;0.70;;;;;;;6.86;60.59;99964.89;103606;1280;95564;-65
2022/04/19 03:01:26;;;;;;;0.70;0.70;;;;;;;6.91;60.62;99965.52;103535;1280;138101;-68
2022/04/19 03:03:55;;;;;;;0.80;0.80;;;;;;;6.91;60.74;99959.16;103703;1279;110141;-66
2022/04/19 03:06:23;;;;;;;0.70;0.70;;;;;;;6.86;60.72;99962.60;103258;1281;139335;-68
2022/04/19 03:08:51;;;;;;;0.70;0.70;;;;;;;6.87;60.78;99964.17;103615;1279;107394;-68
2022/04/19 03:11:19;;;;;;;0.80;0.80;;;;;;;6.99;60.19;99965.36;103540;1281;95528;-68
2022/04/19 03:13:47;;;;;;;0.80;0.80;;;;;;;7.06;60.08;99963.81;103182;1281;136945;-69
2022/04/19 03:16:17;;;;;;;0.70;0.70;;;;;;;7.15;59.73;99959.95;103601;1280;109596;-67
2022/04/19 03:18:46;;;;;;;0.70;0.70;;;;;;;7.20;59.72;99960.20;103620;1280;137733;-69
2022/04/19 03:21:14;;;;;;;0.60;0.60;;;;;;;7.11;59.83;99960.55;104080;1280;108830;-68
2022/04/19 03:29:15;;;;;;;0.70;0.70;;;;;;;7.19;59.72;99964.80;103491;1279;109654;-70
2022/04/19 03:31:45;;;;;;;0.70;0.70;;;;;;;7.07;60.26;99965.56;103495;1279;139616;-67
2022/04/19 03:34:13;;;;;;;0.70;0.70;;;;;;;6.85;60.56;99968.45;103603;1280;108899;-67
2022/04/19 03:36:46;;;;;;;0.70;0.70;;;;;;;6.58;61.86;99968.55;103534;1280;138465;-69
2022/04/19 03:39:15;;;;;;;0.80;0.80;;;;;;;6.35;62.94;99969.80;103629;1279;96044;-67
2022/04/19 03:41:42;;;;;;;0.70;0.70;;;;;;;6.26;62.98;99969.07;103536;1280;109740;-67
2022/04/19 03:44:12;;;;;;;0.70;0.70;;;;;;;6.26;63.39;99971.37;104065;1280;138459;-67
2022/04/19 03:49:28;;;;;;;0.80;0.80;;;;;;;6.03;64.23;99979.81;103526;1280;138337;-68
2022/04/19 03:51:56;;;;;;;0.80;0.80;;;;;;;5.85;64.47;99984.27;103635;1280;95884;-67
2022/04/19 03:54:24;;;;;;;0.70;0.70;;;;;;;5.69;64.97;99990.29;103487;1280;138451;-67
2022/04/19 03:56:53;;;;;;;0.70;0.70;;;;;;;5.56;65.54;99989.73;103630;1280;98852;-68
2022/04/19 03:59:22;;;;;;;0.90;0.90;;;;;;;5.45;65.97;99988.12;103607;1281;108804;-67
2022/04/19 04:01:50;;;;;;;0.80;0.80;;;;;;;5.40;66.15;99991.70;103778;1280;137803;-67
2022/04/19 04:04:19;;;;;;;0.80;0.80;;;;;;;5.33;66.67;99988.78;103674;1280;95607;-66
2022/04/19 04:06:48;;;;;;;0.70;0.70;;;;;;;5.33;66.94;99987.20;103609;1281;138694;-66
2022/04/19 04:09:16;;;;;;;0.80;0.80;;;;;;;5.40;66.91;99986.23;103858;1279;99528;-68
2022/04/19 04:11:49;;;;;;;0.80;0.80;;;;;;;5.40;67.15;99990.46;103688;1279;108712;-66
2022/04/19 04:14:18;;;;;;;0.80;0.80;;;;;;;5.31;67.26;99992.86;103730;1281;138446;-66
2022/04/19 04:16:46;;;;;;;0.80;0.80;;;;;;;5.29;67.61;99998.15;103627;1281;95313;-68
2022/04/19 04:19:14;;;;;;;0.70;0.70;;;;;;;5.44;67.71;100002.91;103535;1280;139546;-70
2022/04/19 04:21:42;;;;;;;0.70;0.70;;;;;;;5.61;67.34;100004.13;103642;1279;98356;-68
2022/04/19 04:24:10;;;;;;;0.80;0.80;;;;;;;5.53;67.02;100003.69;103534;1280;137975;-68
2022/04/19 04:26:42;;;;;;;0.80;0.80;;;;;;;5.59;67.60;100010.32;103755;1280;95343;-68
2022/04/19 04:29:10;;;;;;;0.80;0.80;;;;;;;5.58;67.40;100008.73;104217;1281;95258;-67
2022/04/19 04:31:38;;;;;;;0.70;0.70;;;;;;;5.51;67.35;100010.23;103640;1281;138466;-66
2022/04/19 04:34:11;;;;;;;0.80;0.80;;;;;;;5.64;67.53;100010.23;103689;1281;99426;-68
2022/04/19 04:36:39;;;;;;;0.70;0.70;;;;;;;5.83;67.15;100014.77;103557;1281;138427;-68
2022/04/19 04:39:07;;;;;;;0.80;0.80;;;;;;;5.88;66.94;100017.88;103757;1279;95732;-67
2022/04/19 04:41:45;;;;;;;0.70;0.70;;;;;;;5.84;66.55;100021.10;103721;1281;95745;-66
2022/04/19 04:44:14;;;;;;;0.70;0.70;;;;;;;5.76;66.54;100024.20;103640;1281;138644;-68
2022/04/19 04:49:39;;;;;;;0.80;0.80;;;;;;;5.70;66.70;100029.73;103589;1281;138323;-69
2022/04/19 04:52:12;;;;;;;0.70;0.70;;;;;;;5.61;66.32;100032.65;103677;1280;95757;-69
2022/04/19 04:54:41;;;;;;;0.80;0.80;;;;;;;5.38;66.69;100038.54;103659;1281;137937;-67
2022/04/19 04:57:11;;;;;;;0.80;0.80;;;;;;;5.29;67.16;100040.23;103686;1279;109697;-69
2022/04/19 04:59:39;;;;;;;0.80;0.80;;;;;;;5.29;67.30;100041.29;103659;1281;99593;-68
2022/04/19 05:02:07;;;;;;;0.80;0.80;;;;;;;5.37;66.73;100041.73;103674;1280;138925;-68
2022/04/19 05:04:35;;;;;;;0.70;0.70;;;;;;;5.55;66.48;100041.70;103686;1279;95639;-65
2022/04/19 05:07:04;;;;;;;0.80;0.80;;;;;;;5.50;66.38;100047.05;103744;1280;138294;-67
2022/04/19 05:09:38;;;;;;;0.80;0.80;;;;;;;5.44;66.42;100047.29;103715;1281;109721;-68
2022/04/19 05:12:07;;;;;;;0.80;0.80;;;;;;;5.38;66.38;100048.41;103683;1280;98116;-67
2022/04/19 05:14:35;;;;;;;0.90;0.90;;;;;;;5.25;66.87;100051.02;103597;1281;138370;-68
2022/04/19 05:17:03;;;;;;;0.80;0.80;;;;;;;5.10;67.30;100049.39;103735;1281;95762;-68
2022/04/19 05:19:32;;;;;;;0.90;0.90;;;;;;;5.02;67.70;100049.30;104212;1280;139602;-69
2022/04/19 05:22:00;;;;;;;0.90;0.90;;;;;;;5.06;67.54;100051.71;103801;1279;109669;-68
2022/04/19 05:24:29;;;;;;;0.80;0.80;;;;;;;5.10;67.49;100053.62;103680;1281;140445;-68
2022/04/19 05:26:57;;;;;;;0.90;0.90;;;;;;;5.06;66.86;100052.42;103720;1279;108765;-69
2022/04/19 05:29:25;;;;;;;0.80;0.80;;;;;;;5.01;67.10;100056.16;103693;1281;95647;-69
2022/04/19 05:31:53;;;;;;;0.90;0.90;;;;;;;5.01;67.25;100059.50;103596;1281;139046;-67
2022/04/19 05:34:21;;;;;;;0.90;0.90;;;;;;;5.03;67.31;100062.83;103627;1279;109555;-67
2022/04/19 05:36:49;;;;;;;0.80;0.80;;;;;;;5.06;67.03;100068.26;103533;1281;137541;-67
2022/04/19 05:39:17;;;;;;;1.00;1.00;;;;;;;5.04;67.04;100072.50;103787;1281;108716;-69
2022/04/19 05:41:45;;;;;;;0.90;0.90;;;;;;;5.08;67.08;100068.41;103657;1279;95304;-69
2022/04/19 05:44:13;;;;;;;0.90;0.90;;;;;;;5.20;66.96;100077.63;103570;1281;139117;-67
2022/04/19 05:46:41;;;;;;;0.80;0.80;;;;;;;5.22;66.24;100077.08;103671;1279;109666;-67
2022/04/19 05:49:14;;;;;;;0.80;0.80;;;;;;;5.28;66.04;100077.20;103600;1280;138576;-69
2022/04/19 05:51:42;;;;;;;0.80;0.80;;;;;;;5.23;65.62;100082.00;103683;1278;108785;-66
2022/04/19 05:54:10;;;;;;;0.90;0.90;;;;;;;5.11;66.00;100086.17;103629;1281;96172;-67
2022/04/19 05:56:38;;;;;;;0.90;0.90;;;;;;;5.15;65.99;100084.55;103535;1280;138596;-68
2022/04/19 05:59:06;;;;;;;1.10;1.10;;;;;;;5.08;66.24;100086.54;103496;1280;109741;-68
2022/04/19 06:07:07;;;;;;;0.90;0.90;;;;;;;5.08;66.61;100102.37;103557;1279;139403;-69
2022/04/19 06:09:35;;;;;;;0.80;0.80;;;;;;;5.05;66.57;100102.59;103615;1280;95610;-70
2022/04/19 06:12:04;;;;;;;0.80;0.80;;;;;;;5.11;66.42;100106.40;103572;1280;109797;-67
2022/04/19 06:14:35;;;;;;;0.90;0.90;;;;;;;5.01;66.67;100113.87;103696;1281;137975;-66
2022/04/19 06:17:03;;;;;;;0.90;0.90;;;;;;;5.00;66.86;100115.83;103722;1278;108789;-67
2022/04/19 06:19:31;;;;;;;0.90;0.90;;;;;;;4.97;66.60;100114.08;103572;1279;139118;-67
2022/04/19 06:21:59;;;;;;;0.90;0.90;;;;;;;4.99;66.67;100115.83;103832;1280;95563;-67
2022/04/19 06:24:27;;;;;;;0.80;0.80;;;;;;;5.08;66.78;100117.69;103526;1280;137907;-68
2022/04/19 06:26:55;;;;;;;0.80;0.80;;;;;;;5.13;66.57;100117.48;103692;1280;98412;-66
2022/04/19 06:29:23;;;;;;;0.80;0.80;;;;;;;5.21;66.77;100118.11;103671;1279;108768;-65
2022/04/19 06:31:56;;;;;;;0.80;0.80;;;;;;;5.40;65.98;100121.98;103600;1280;139286;-66
2022/04/19 06:34:44;;;;;;;0.80;0.80;;;;;;;5.30;66.01;100124.00;103718;1280;95242;-67
2022/04/19 06:37:16;;;;;;;0.80;0.80;;;;;;;5.23;66.22;100122.31;103573;1280;138767;-66
2022/04/19 06:39:46;;;;;;;0.80;0.80;;;;;;;5.23;66.06;100127.25;103793;1279;99637;-64
2022/04/19 06:42:15;;;;;;;0.80;0.80;;;;;;;5.20;65.94;100133.60;103639;1280;138278;-69
2022/04/19 06:45:07;;;;;;;1.00;1.00;;;;;;;5.11;66.10;100136.15;103613;1279;95236;-66
2022/04/19 06:47:38;;;;;;;0.80;0.80;;;;;;;5.11;66.36;100139.47;103813;1279;96115;-69
2022/04/19 06:50:06;;;;;;;0.80;0.80;;;;;;;5.21;66.08;100140.63;103651;1279;138580;-66
2022/04/19 06:52:34;;;;;;;0.70;0.70;;;;;;;5.23;65.81;100146.25;103550;1280;99904;-68
2022/04/19 06:55:04;;;;;;;0.80;0.80;;;;;;;5.29;65.93;100151.48;103630;1279;137821;-66
2022/04/19 06:57:36;;;;;;;0.90;0.90;;;;;;;5.26;65.80;100150.27;103780;1278;95766;-66
2022/04/19 07:00:04;;;;;;;0.90;0.90;;;;;;;5.20;66.10;100154.54;103868;1279;95149;-65
2022/04/19 07:02:32;;;;;;;0.70;0.70;;;;;;;5.26;66.13;100157.66;103608;1279;138687;-68
2022/04/19 07:05:26;;;;;;;0.80;0.80;;;;;;;5.35;65.46;100162.86;103334;1279;98904;-68
2022/04/19 07:07:54;;;;;;;0.80;0.80;;;;;;;5.49;65.32;100166.62;103457;1279;138315;-67
2022/04/19 07:10:22;;;;;;;0.80;0.80;;;;;;;5.60;65.20;100168.09;103384;1281;95291;-64
2022/04/19 07:12:58;;;;;;;0.80;0.80;;;;;;;5.71;64.70;100170.10;103369;1279;138696;-67
2022/04/19 07:15:26;;;;;;;0.80;0.80;;;;;;;5.67;64.09;100172.61;103515;1281;109648;-68
2022/04/19 07:17:55;;;;;;;0.80;0.80;;;;;;;5.63;64.32;100174.93;103838;1279;99370;-66
2022/04/19 07:28:50;;;;;;;0.70;0.70;;;;;;;6.04;62.95;100186.52;103943;1280;109681;-67
2022/04/19 07:31:19;;;;;;;0.70;0.70;;;;;;;6.10;63.14;100186.64;103308;1279;138020;-66
2022/04/19 07:33:48;;;;;;;0.80;0.80;;;;;;;6.11;62.90;100190.34;103606;1279;108845;-67
2022/04/19 07:36:16;;;;;;;0.80;0.80;;;;;;;6.14;62.80;100192.05;103438;1280;138745;-68
2022/04/19 07:38:46;;;;;;;0.70;0.70;;;;;;;6.18;62.73;100193.23;103904;1279;96474;-67
2022/04/19 07:41:25;;;;;;;0.70;0.70;;;;;;;6.19;62.72;100192.17;103603;1278;109763;-68
2022/04/19 07:43:54;;;;;;;0.80;0.80;;;;;;;6.30;62.97;100199.28;104265;1279;138000;-68
2022/04/19 07:46:24;;;;;;;0.70;0.70;;;;;;;6.29;62.19;100198.58;103660;1279;107916;-67
2022/04/19 07:48:57;;;;;;;0.70;0.70;;;;;;;6.24;62.11;100195.45;103622;1279;138676;-67
2022/04/19 07:51:25;;;;;;;0.70;0.70;;;;;;;6.25;62.30;100200.21;103609;1280;95248;-69
2022/04/19 07:53:55;;;;;;;0.80;0.80;;;;;;;6.31;61.95;100200.50;103762;1281;109864;-69
2022/04/19 07:56:23;;;;;;;0.70;0.70;;;;;;;6.49;62.06;100201.34;103152;1279;138414;-69
2022/04/19 07:58:51;;;;;;;0.70;0.70;;;;;;;6.58;61.31;100206.33;103599;1279;108374;-69
2022/04/19 08:01:20;;;;;;;0.60;0.60;;;;;;;6.62;60.75;100206.45;103438;1279;138089;-68
2022/04/19 08:03:48;;;;;;;0.70;0.70;;;;;;;6.66;61.34;100208.70;103602;1279;95634;-67
2022/04/19 08:06:16;;;;;;;0.70;0.70;;;;;;;6.80;60.91;100214.88;103446;1279;137972;-67
2022/04/19 08:08:44;;;;;;;0.70;0.70;;;;;;;6.72;60.30;100217.78;103654;1279;98393;-67
2022/04/19 08:11:12;;;;;;;0.70;0.70;;;;;;;6.68;60.81;100219.96;103434;1279;109204;-69
2022/04/19 08:13:40;;;;;;;0.70;0.70;;;;;;;6.81;60.32;100217.67;103661;1279;138681;-66
2022/04/19 08:16:09;;;;;;;0.60;0.60;;;;;;;6.93;60.27;100223.69;103622;1279;96976;-67
2022/04/19 08:18:41;;;;;;;0.60;0.60;;;;;;;7.03;59.81;100231.48;103870;1279;138064;-68
2022/04/19 08:21:09;;;;;;;0.70;0.70;;;;;;;6.91;59.48;100230.60;103575;1280;99751;-69
2022/04/19 08:23:37;;;;;;;0.70;0.70;;;;;;;6.84;59.92;100232.45;103837;1279;109319;-66
2022/04/19 08:26:08;;;;;;;0.70;0.70;;;;;;;6.80;59.50;100237.79;103122;1277;137523;-67
2022/04/19 08:28:37;;;;;;;0.70;0.70;;;;;;;6.73;59.47;100240.02;103638;1278;95109;-70
2022/04/19 08:31:05;;;;;;;0.70;0.70;;;;;;;6.74;59.87;100246.34;103412;1281;138563;-72
2022/04/19 08:33:33;;;;;;;0.60;0.60;;;;;;;6.79;59.79;100243.29;104208;1278;99345;-70
2022/04/19 08:36:02;;;;;;;0.80;0.80;;;;;;;6.84;59.61;100240.39;104256;1277;108357;-69
2022/04/19 08:38:30;;;;;;;0.70;0.70;;;;;;;6.92;59.59;100240.98;104082;1277;137928;-66
2022/04/19 08:40:59;;;;;;;0.70;0.70;;;;;;;7.09;59.73;100241.11;103621;1278;95401;-67
2022/04/19 08:43:28;;;;;;;0.70;0.70;;;;;;;7.17;58.68;100241.16;103331;1277;137424;-67
2022/04/19 08:45:57;;;;;;;0.60;0.60;;;;;;;7.13;58.82;100241.03;103456;1277;99525;-68
2022/04/19 08:48:26;;;;;;;0.60;0.60;;;;;;;7.14;58.33;100243.32;103392;1279;138015;-65
2022/04/19 08:50:55;;;;;;;0.60;0.60;;;;;;;7.27;59.31;100246.48;104551;1278;96054;-66
2022/04/19 08:58:56;;;;;;;0.70;0.70;;;;;;;7.62;57.62;100239.23;103439;1277;99401;-64
2022/04/19 09:01:23;;;;;;;0.70;0.70;;;;;;;7.70;57.10;100236.79;103571;1277;138804;-64
2022/04/19 09:03:52;;;;;;;0.60;0.60;;;;;;;7.77;56.87;100240.21;103461;1277;95376;-66
2022/04/19 09:06:21;;;;;;;0.60;0.60;;;;;;;7.69;56.86;100239.45;103457;1278;138368;-67
2022/04/19 09:09:11;;;;;;;0.60;0.60;;;;;;;7.76;56.71;100244.80;103855;1279;109697;-68
2022/04/19 09:11:39;;;;;;;0.70;0.70;;;;;;;7.72;56.81;100245.95;103393;1279;99448;-64
2022/04/19 09:14:07;;;;;;;0.60;0.60;;;;;;;7.62;56.49;100247.86;103538;1279;138425;-68
2022/04/19 09:16:35;;;;;;;0.70;0.70;;;;;;;7.52;56.92;100246.62;103700;1278;95344;-66
2022/04/19 09:19:03;;;;;;;0.60;0.60;;;;;;;7.43;56.82;100252.25;103369;1279;138033;-67
2022/04/19 09:21:37;;;;;;;0.60;0.60;;;;;;;7.32;56.99;100257.54;103558;1279;109914;-67
2022/04/19 09:24:22;;;;;;;0.70;0.70;;;;;;;7.28;56.61;100259.54;104040;1280;99538;-66
2022/04/19 09:26:50;;;;;;;0.60;0.60;;;;;;;7.34;56.69;100260.67;103644;1278;137688;-65
2022/04/19 09:29:28;;;;;;;0.70;0.70;;;;;;;7.33;56.62;100261.95;103549;1279;96143;-67
2022/04/19 09:31:58;;;;;;;0.60;0.60;;;;;;;7.45;57.09;100260.52;104317;1278;137839;-70
2022/04/19 09:34:33;;;;;;;0.60;0.60;;;;;;;7.56;56.84;100258.76;106239;1278;109694;-71
2022/04/19 09:37:12;;;;;;;0.60;0.60;;;;;;;7.40;56.29;100269.42;104405;1277;141220;-71
2022/04/19 09:39:41;;;;;;;0.60;0.60;;;;;;;7.13;56.84;100273.35;104294;1278;108975;-71
2022/04/19 09:42:13;;;;;;;0.60;0.60;;;;;;;7.04;57.27;100276.31;104301;1278;95920;-70
2022/04/19 09:44:43;;;;;;;0.60;0.60;;;;;;;6.97;56.98;100277.11;104079;1277;137929;-70
2022/04/19 09:47:12;;;;;;;0.60;0.60;;;;;;;6.98;57.09;100282.04;104559;1277;108558;-66
2022/04/19 09:49:48;;;;;;;0.70;0.70;;;;;;;7.11;56.96;100279.38;103679;1278;137910;-64
2022/04/19 09:52:22;;;;;;;0.60;0.60;;;;;;;7.21;56.72;100278.18;103671;1278;107014;-71
2022/04/19 09:55:08;;;;;;;0.70;0.70;;;;;;;7.45;56.94;100281.90;104076;1279;138138;-70
2022/04/19 09:57:37;;;;;;;0.70;0.70;;;;;;;7.50;55.44;100282.52;104179;1279;95569;-69
2022/04/19 10:00:08;;;;;;;0.60;0.60;;;;;;;7.50;55.74;100283.75;104227;1277;110769;-70
2022/04/19 10:08:21;;;;;;;0.60;0.60;;;;;;;7.93;54.66;100285.88;104578;1277;138283;-68
2022/04/19 10:10:51;;;;;;;0.60;0.60;;;;;;;8.05;54.61;100288.69;103503;1278;95617;-69
2022/04/19 10:13:23;;;;;;;0.70;0.70;;;;;;;8.10;54.62;100287.52;103566;1278;138744;-69
2022/04/19 10:15:52;;;;;;;0.60;0.60;;;;;;;8.13;54.25;100288.73;104215;1277;98346;-70
2022/04/19 10:18:20;;;;;;;0.60;0.60;;;;;;;8.23;53.75;100284.84;104417;1278;109066;-67
2022/04/19 10:20:53;;;;;;;0.60;0.60;;;;;;;8.18;53.54;100285.09;103442;1278;138315;-65
2022/04/19 10:23:21;;;;;;;0.60;0.60;;;;;;;8.14;53.54;100284.98;104279;1278;95683;-67
2022/04/19 10:25:49;;;;;;;0.60;0.60;;;;;;;8.30;53.46;100287.17;103580;1278;138373;-67
2022/04/19 10:28:28;;;;;;;0.60;0.60;;;;;;;8.56;53.20;100290.77;103930;1278;99023;-65
2022/04/19 10:30:58;;;;;;;0.50;0.50;;;;;;;8.84;52.70;100290.38;103438;1278;138036;-67
2022/04/19 10:33:45;;;;;;;0.50;0.50;;;;;;;8.99;50.94;100288.31;103881;1278;95252;-68
2022/04/19 10:36:24;;;;;;;0.60;0.60;;;;;;;9.03;51.16;100291.04;103771;1278;95148;-65
2022/04/19 10:39:16;;;;;;;0.50;0.50;;;;;;;9.05;51.27;100292.08;103537;1279;138005;-65
2022/04/19 10:41:48;;;;;;;0.50;0.50;;;;;;;9.25;50.82;100289.50;103670;1278;100326;-65
2022/04/19 10:44:21;;;;;;;0.60;0.60;;;;;;;9.33;50.29;100286.14;103375;1278;137932;-68
2022/04/19 10:47:15;;;;;;;0.60;0.60;;;;;;;9.17;49.26;100281.88;104191;1278;95029;-67
2022/04/19 10:50:06;;;;;;;0.60;0.60;;;;;;;9.08;49.40;100283.33;103319;1278;137619;-66
2022/04/19 10:52:37;;;;;;;0.50;0.50;;;;;;;8.89;48.68;100283.38;103404;1279;109760;-65
2022/04/19 10:55:17;;;;;;;0.50;0.50;;;;;;;8.81;48.98;100279.82;103199;1278;138782;-66
2022/04/19 10:58:06;;;;;;;0.50;0.50;;;;;;;8.79;48.85;100279.70;103491;1279;108855;-66
2022/04/19 11:00:37;;;;;;;0.50;0.50;;;;;;;8.82;49.64;100283.16;103662;1278;138968;-66
2022/04/19 11:03:49;;;;;;;0.50;0.50;;;;;;;8.81;49.36;100282.30;103524;1279;96881;-67
2022/04/19 11:06:31;;;;;;;0.60;0.60;;;;;;;8.85;49.85;100285.59;103865;1277;109860;-65
2022/04/19 11:09:07;;;;;;;0.50;0.50;;;;;;;8.97;49.24;100286.77;103627;1281;138001;-65
2022/04/19 11:11:52;;;;;;;0.50;0.50;;;;;;;9.10;48.88;100281.14;104587;1278;107806;-66
2022/04/19 11:14:43;;;;;;;0.50;0.40;;;;;;;9.18;48.19;100284.52;103268;1279;138541;-68
2022/04/19 11:17:23;;;;;;;0.50;0.50;;;;;;;9.23;48.67;100285.11;103632;1279;96122;-66
2022/04/19 11:20:09;;;;;;;0.50;0.50;;;;;;;9.27;47.18;100286.45;103735;1278;137921;-66
2022/04/19 11:22:48;;;;;;;0.50;0.50;;;;;;;9.09;46.98;100285.78;103544;1278;99834;-68
2022/04/19 11:25:36;;;;;;;0.50;0.50;;;;;;;9.12;48.38;100283.05;103540;1278;138348;-62
2022/04/19 11:28:08;;;;;;;0.50;0.50;;;;;;;9.25;48.55;100281.88;103936;1279;95645;-67
2022/04/19 11:30:57;;;;;;;0.50;0.50;;;;;;;9.30;48.33;100285.31;103352;1278;138333;-66
2022/04/19 11:33:28;;;;;;;0.50;0.50;;;;;;;9.24;48.05;100281.01;103273;1279;108749;-66
2022/04/19 11:36:09;;;;;;;0.50;0.50;;;;;;;9.22;48.48;100283.02;104383;1277;99462;-68
2022/04/19 11:38:50;;;;;;;0.50;0.50;;;;;;;9.11;48.11;100279.70;103481;1278;138205;-67
2022/04/19 11:46:47;;;;;;;0.50;0.50;;;;;;;8.99;50.00;100289.19;104174;1278;109062;-67
2022/04/19 11:49:15;;;;;;;0.50;0.50;;;;;;;8.88;49.40;100291.20;103789;1279;138089;-68
2022/04/19 11:51:49;;;;;;;0.50;0.50;;;;;;;8.71;49.61;100289.23;104085;1278;108912;-68
2022/04/19 11:54:19;;;;;;;0.60;0.60;;;;;;;8.59;50.62;100298.32;103864;1279;95083;-70
2022/04/19 11:56:58;;;;;;;0.60;0.60;;;;;;;8.43;51.45;100295.79;103827;1278;138278;-69
2022/04/19 11:59:30;;;;;;;0.50;0.50;;;;;;;8.28;52.11;100298.17;104154;1279;109824;-69
2022/04/19 12:01:58;;;;;;;0.60;0.60;;;;;;;8.08;52.26;100296.41;103803;1279;137775;-70
2022/04/19 12:04:27;;;;;;;0.60;0.60;;;;;;;8.10;52.15;100293.02;103902;1279;108664;-68
2022/04/19 12:06:59;;;;;;;0.60;0.60;;;;;;;8.15;52.75;100293.81;103692;1278;138164;-68
2022/04/19 12:09:28;;;;;;;0.50;0.50;;;;;;;8.10;52.15;100291.08;103707;1279;95150;-67
2022/04/19 12:12:03;;;;;;;0.60;0.60;;;;;;;8.07;52.13;100290.07;103709;1278;109871;-68
2022/04/19 12:14:32;;;;;;;0.70;0.70;;;;;;;8.16;52.13;100289.73;104144;1277;138500;-68
2022/04/19 12:17:06;;;;;;;0.60;0.60;;;;;;;8.41;51.80;100290.34;103683;1278;108975;-68
2022/04/19 12:19:43;;;;;;;0.80;0.80;;;;;;;8.52;51.50;100287.52;103909;1279;138151;-67
2022/04/19 12:22:22;;;;;;;0.70;0.70;;;;;;;8.70;51.02;100282.89;103963;1277;95136;-68
2022/04/19 12:24:55;;;;;;;0.60;0.60;;;;;;;8.73;50.47;100284.07;103827;1279;138305;-69